sensor_id;sensor_type;location;lat;lon;timestamp;temperature;humidity
11549;DHT22;61444;59.472;18.306;2023-06-14T00:02:07;11.60;99.90
11549;DHT22;61444;59.472;18.306;2023-06-14T00:04:16;11.50;99.90
11549;DHT22;61444;59.472;18.306;2023-06-14T00:06:25;11.50;99.90
11549;DHT22;61444;59.472;18.306;2023-06-14T00:08:33;11.50;99.90
11549;DHT22;61444;59.472;18.306;2023-06-14T00:10:42;11.50;99.90
11549;DHT22;61444;59.472;18.306;2023-06-14T00:12:50;11.60;99.90
11549;DHT22;61444;59.472;18.306;2023-06-14T00:15:01;11.60;99.90
11549;DHT22;61444;59.472;18.306;2023-06-14T00:17:09;11.50;99.90
11549;DHT22;61444;59.472;18.306;2023-06-14T00:19:18;11.40;99.90
11549;DHT22;61444;59.472;18.306;2023-06-14T00:21:27;11.40;99.90
11549;DHT22;61444;59.472;18.306;2023-06-14T00:23:37;11.30;99.90
11549;DHT22;61444;59.472;18.306;2023-06-14T00:25:45;11.30;99.90
11549;DHT22;61444;59.472;18.306;2023-06-14T00:27:55;11.30;99.90
11549;DHT22;61444;59.472;18.306;2023-06-14T00:30:06;11.20;99.90
11549;DHT22;61444;59.472;18.306;2023-06-14T00:32:15;11.20;99.90
11549;DHT22;61444;59.472;18.306;2023-06-14T00:34:23;11.30;99.90
11549;DHT22;61444;59.472;18.306;2023-06-14T00:36:32;11.20;99.90
11549;DHT22;61444;59.472;18.306;2023-06-14T00:38:41;11.20;99.90
11549;DHT22;61444;59.472;18.306;2023-06-14T00:40:51;11.10;99.90
11549;DHT22;61444;59.472;18.306;2023-06-14T00:43:00;11.10;99.90
11549;DHT22;61444;59.472;18.306;2023-06-14T00:45:11;11.10;99.90
11549;DHT22;61444;59.472;18.306;2023-06-14T00:47:20;11.00;99.90
11549;DHT22;61444;59.472;18.306;2023-06-14T00:49:29;11.00;99.90
11549;DHT22;61444;59.472;18.306;2023-06-14T00:51:38;11.00;99.90
11549;DHT22;61444;59.472;18.306;2023-06-14T00:53:47;10.90;99.90
11549;DHT22;61444;59.472;18.306;2023-06-14T00:55:56;10.90;99.90
11549;DHT22;61444;59.472;18.306;2023-06-14T00:58:05;11.00;99.90
11549;DHT22;61444;59.472;18.306;2023-06-14T01:00:17;11.10;99.90
11549;DHT22;61444;59.472;18.306;2023-06-14T01:02:26;11.10;99.90
11549;DHT22;61444;59.472;18.306;2023-06-14T01:04:35;11.10;99.90
11549;DHT22;61444;59.472;18.306;2023-06-14T01:06:52;11.10;99.90
11549;DHT22;61444;59.472;18.306;2023-06-14T01:09:14;11.10;99.90
11549;DHT22;61444;59.472;18.306;2023-06-14T01:11:28;11.20;99.90
11549;DHT22;61444;59.472;18.306;2023-06-14T01:13:43;11.30;99.90
11549;DHT22;61444;59.472;18.306;2023-06-14T01:15:55;11.30;99.90
11549;DHT22;61444;59.472;18.306;2023-06-14T01:18:04;11.30;99.90
11549;DHT22;61444;59.472;18.306;2023-06-14T01:20:15;11.30;99.90
11549;DHT22;61444;59.472;18.306;2023-06-14T01:22:26;11.30;99.90
11549;DHT22;61444;59.472;18.306;2023-06-14T01:24:37;11.30;99.90
11549;DHT22;61444;59.472;18.306;2023-06-14T01:26:46;11.30;99.90
11549;DHT22;61444;59.472;18.306;2023-06-14T01:28:59;11.30;99.90
11549;DHT22;61444;59.472;18.306;2023-06-14T01:31:08;11.30;99.90
11549;DHT22;61444;59.472;18.306;2023-06-14T01:33:21;11.30;99.90
11549;DHT22;61444;59.472;18.306;2023-06-14T01:35:30;11.30;99.90
11549;DHT22;61444;59.472;18.306;2023-06-14T01:37:40;11.40;99.90
11549;DHT22;61444;59.472;18.306;2023-06-14T01:39:50;11.40;99.90
11549;DHT22;61444;59.472;18.306;2023-06-14T01:41:59;11.40;99.90
11549;DHT22;61444;59.472;18.306;2023-06-14T01:44:09;11.40;99.90
11549;DHT22;61444;59.472;18.306;2023-06-14T01:46:19;11.40;99.90
11549;DHT22;61444;59.472;18.306;2023-06-14T01:48:27;11.40;99.90
11549;DHT22;61444;59.472;18.306;2023-06-14T01:50:36;11.30;99.90
11549;DHT22;61444;59.472;18.306;2023-06-14T01:52:44;11.30;99.90
11549;DHT22;61444;59.472;18.306;2023-06-14T01:54:54;11.30;99.90
11549;DHT22;61444;59.472;18.306;2023-06-14T01:57:03;11.30;99.90
11549;DHT22;61444;59.472;18.306;2023-06-14T01:59:14;11.40;99.90
11549;DHT22;61444;59.472;18.306;2023-06-14T02:01:23;11.30;99.90
11549;DHT22;61444;59.472;18.306;2023-06-14T02:03:31;11.30;99.90
11549;DHT22;61444;59.472;18.306;2023-06-14T02:05:41;11.30;99.90
11549;DHT22;61444;59.472;18.306;2023-06-14T02:07:50;11.30;99.90
11549;DHT22;61444;59.472;18.306;2023-06-14T02:10:00;11.40;99.90
11549;DHT22;61444;59.472;18.306;2023-06-14T02:12:09;11.40;99.90
11549;DHT22;61444;59.472;18.306;2023-06-14T02:14:18;11.40;99.90
11549;DHT22;61444;59.472;18.306;2023-06-14T02:16:27;11.40;99.90
11549;DHT22;61444;59.472;18.306;2023-06-14T02:18:36;11.40;99.90
11549;DHT22;61444;59.472;18.306;2023-06-14T02:20:45;11.50;99.90
11549;DHT22;61444;59.472;18.306;2023-06-14T02:22:53;11.50;99.90
11549;DHT22;61444;59.472;18.306;2023-06-14T02:25:05;11.50;99.90
11549;DHT22;61444;59.472;18.306;2023-06-14T02:27:14;11.50;99.90
11549;DHT22;61444;59.472;18.306;2023-06-14T02:29:24;11.50;99.90
11549;DHT22;61444;59.472;18.306;2023-06-14T02:31:33;11.60;99.90
11549;DHT22;61444;59.472;18.306;2023-06-14T02:33:41;11.60;99.90
11549;DHT22;61444;59.472;18.306;2023-06-14T02:35:50;11.60;99.90
11549;DHT22;61444;59.472;18.306;2023-06-14T02:38:00;11.60;99.90
11549;DHT22;61444;59.472;18.306;2023-06-14T02:40:11;11.60;99.90
11549;DHT22;61444;59.472;18.306;2023-06-14T02:42:20;11.70;99.90
11549;DHT22;61444;59.472;18.306;2023-06-14T02:44:29;11.70;99.90
11549;DHT22;61444;59.472;18.306;2023-06-14T02:46:38;11.70;99.90
11549;DHT22;61444;59.472;18.306;2023-06-14T02:48:47;11.80;99.90
11549;DHT22;61444;59.472;18.306;2023-06-14T02:50:56;11.90;99.90
11549;DHT22;61444;59.472;18.306;2023-06-14T02:53:04;11.90;99.90
11549;DHT22;61444;59.472;18.306;2023-06-14T02:55:15;12.00;99.90
11549;DHT22;61444;59.472;18.306;2023-06-14T02:57:24;12.00;99.90
11549;DHT22;61444;59.472;18.306;2023-06-14T02:59:33;12.00;99.90
11549;DHT22;61444;59.472;18.306;2023-06-14T03:01:42;12.00;99.90
11549;DHT22;61444;59.472;18.306;2023-06-14T03:03:50;12.10;99.90
11549;DHT22;61444;59.472;18.306;2023-06-14T03:05:59;12.00;99.90
11549;DHT22;61444;59.472;18.306;2023-06-14T03:08:11;12.00;99.90
11549;DHT22;61444;59.472;18.306;2023-06-14T03:10:25;12.00;99.90
11549;DHT22;61444;59.472;18.306;2023-06-14T03:12:36;12.10;99.90
11549;DHT22;61444;59.472;18.306;2023-06-14T03:14:45;12.10;99.90
11549;DHT22;61444;59.472;18.306;2023-06-14T03:16:54;12.20;99.90
11549;DHT22;61444;59.472;18.306;2023-06-14T03:19:03;12.30;99.90
11549;DHT22;61444;59.472;18.306;2023-06-14T03:21:12;12.30;99.90
11549;DHT22;61444;59.472;18.306;2023-06-14T03:23:23;12.40;99.90
11549;DHT22;61444;59.472;18.306;2023-06-14T03:25:33;12.40;99.90
11549;DHT22;61444;59.472;18.306;2023-06-14T03:27:45;12.40;99.90
11549;DHT22;61444;59.472;18.306;2023-06-14T03:29:53;12.50;99.90
11549;DHT22;61444;59.472;18.306;2023-06-14T03:32:03;12.50;99.90
11549;DHT22;61444;59.472;18.306;2023-06-14T03:34:12;12.70;99.90
11549;DHT22;61444;59.472;18.306;2023-06-14T03:36:21;12.70;99.90
11549;DHT22;61444;59.472;18.306;2023-06-14T03:38:30;12.70;99.90
11549;DHT22;61444;59.472;18.306;2023-06-14T03:40:40;12.70;99.90
11549;DHT22;61444;59.472;18.306;2023-06-14T03:42:49;12.70;99.90
11549;DHT22;61444;59.472;18.306;2023-06-14T03:44:57;12.80;99.90
11549;DHT22;61444;59.472;18.306;2023-06-14T03:47:06;12.80;99.90
11549;DHT22;61444;59.472;18.306;2023-06-14T03:49:15;12.90;99.90
11549;DHT22;61444;59.472;18.306;2023-06-14T03:51:24;12.90;99.90
11549;DHT22;61444;59.472;18.306;2023-06-14T03:53:35;12.90;99.90
11549;DHT22;61444;59.472;18.306;2023-06-14T03:56:01;12.90;99.90
11549;DHT22;61444;59.472;18.306;2023-06-14T03:58:09;12.90;99.90
11549;DHT22;61444;59.472;18.306;2023-06-14T04:00:18;13.00;99.90
11549;DHT22;61444;59.472;18.306;2023-06-14T04:02:27;13.00;99.90
11549;DHT22;61444;59.472;18.306;2023-06-14T04:04:37;13.00;99.90
11549;DHT22;61444;59.472;18.306;2023-06-14T04:06:45;13.10;99.90
11549;DHT22;61444;59.472;18.306;2023-06-14T04:08:55;13.20;99.90
11549;DHT22;61444;59.472;18.306;2023-06-14T04:11:05;13.30;99.90
11549;DHT22;61444;59.472;18.306;2023-06-14T04:13:13;13.30;99.90
11549;DHT22;61444;59.472;18.306;2023-06-14T04:15:22;13.40;99.90
11549;DHT22;61444;59.472;18.306;2023-06-14T04:17:31;13.50;99.90
11549;DHT22;61444;59.472;18.306;2023-06-14T04:19:41;13.60;99.90
11549;DHT22;61444;59.472;18.306;2023-06-14T04:21:49;13.60;99.90
11549;DHT22;61444;59.472;18.306;2023-06-14T04:23:58;13.60;99.90
11549;DHT22;61444;59.472;18.306;2023-06-14T04:26:10;13.70;99.90
11549;DHT22;61444;59.472;18.306;2023-06-14T04:28:18;13.80;99.90
11549;DHT22;61444;59.472;18.306;2023-06-14T04:30:27;13.90;99.90
11549;DHT22;61444;59.472;18.306;2023-06-14T04:32:38;14.00;99.90
11549;DHT22;61444;59.472;18.306;2023-06-14T04:34:47;14.10;99.90
11549;DHT22;61444;59.472;18.306;2023-06-14T04:36:55;14.20;99.90
11549;DHT22;61444;59.472;18.306;2023-06-14T04:39:05;14.40;99.90
11549;DHT22;61444;59.472;18.306;2023-06-14T04:41:17;14.40;99.90
11549;DHT22;61444;59.472;18.306;2023-06-14T04:43:26;14.50;99.90
11549;DHT22;61444;59.472;18.306;2023-06-14T04:45:34;14.50;99.90
11549;DHT22;61444;59.472;18.306;2023-06-14T04:47:44;14.50;99.90
11549;DHT22;61444;59.472;18.306;2023-06-14T04:49:53;14.60;99.90
11549;DHT22;61444;59.472;18.306;2023-06-14T04:52:02;14.60;99.90
11549;DHT22;61444;59.472;18.306;2023-06-14T04:54:11;14.60;99.90
11549;DHT22;61444;59.472;18.306;2023-06-14T04:56:23;14.60;99.90
11549;DHT22;61444;59.472;18.306;2023-06-14T04:58:32;14.80;99.90
11549;DHT22;61444;59.472;18.306;2023-06-14T05:00:40;15.00;99.90
11549;DHT22;61444;59.472;18.306;2023-06-14T05:02:50;15.20;99.90
11549;DHT22;61444;59.472;18.306;2023-06-14T05:05:00;15.30;99.90
11549;DHT22;61444;59.472;18.306;2023-06-14T05:07:09;15.30;99.90
11549;DHT22;61444;59.472;18.306;2023-06-14T05:09:18;15.50;99.90
11549;DHT22;61444;59.472;18.306;2023-06-14T05:11:28;15.60;99.90
11549;DHT22;61444;59.472;18.306;2023-06-14T05:13:37;15.90;99.90
11549;DHT22;61444;59.472;18.306;2023-06-14T05:15:48;16.10;99.90
11549;DHT22;61444;59.472;18.306;2023-06-14T05:17:57;16.30;99.50
11549;DHT22;61444;59.472;18.306;2023-06-14T05:20:07;16.50;98.60
11549;DHT22;61444;59.472;18.306;2023-06-14T05:22:17;16.80;97.20
11549;DHT22;61444;59.472;18.306;2023-06-14T05:24:26;16.90;96.50
11549;DHT22;61444;59.472;18.306;2023-06-14T05:26:38;17.10;97.10
11549;DHT22;61444;59.472;18.306;2023-06-14T05:28:47;17.30;95.50
11549;DHT22;61444;59.472;18.306;2023-06-14T05:30:57;17.40;97.80
11549;DHT22;61444;59.472;18.306;2023-06-14T05:33:06;17.40;93.80
11549;DHT22;61444;59.472;18.306;2023-06-14T05:35:15;17.40;95.20
11549;DHT22;61444;59.472;18.306;2023-06-14T05:37:24;17.50;92.50
11549;DHT22;61444;59.472;18.306;2023-06-14T05:39:32;17.50;91.20
11549;DHT22;61444;59.472;18.306;2023-06-14T05:41:42;17.60;90.00
11549;DHT22;61444;59.472;18.306;2023-06-14T05:43:51;17.70;90.20
11549;DHT22;61444;59.472;18.306;2023-06-14T05:46:00;17.80;91.60
11549;DHT22;61444;59.472;18.306;2023-06-14T05:48:08;17.80;90.60
11549;DHT22;61444;59.472;18.306;2023-06-14T05:50:18;17.90;90.10
11549;DHT22;61444;59.472;18.306;2023-06-14T05:52:26;18.00;91.70
11549;DHT22;61444;59.472;18.306;2023-06-14T05:54:35;18.10;90.20
11549;DHT22;61444;59.472;18.306;2023-06-14T05:56:45;18.20;91.00
11549;DHT22;61444;59.472;18.306;2023-06-14T05:58:53;18.30;90.90
11549;DHT22;61444;59.472;18.306;2023-06-14T06:01:02;18.30;90.40
11549;DHT22;61444;59.472;18.306;2023-06-14T06:03:10;18.40;90.10
11549;DHT22;61444;59.472;18.306;2023-06-14T06:05:20;18.40;90.80
11549;DHT22;61444;59.472;18.306;2023-06-14T06:07:28;18.50;90.10
11549;DHT22;61444;59.472;18.306;2023-06-14T06:09:37;18.50;88.30
11549;DHT22;61444;59.472;18.306;2023-06-14T06:11:47;18.70;88.50
11549;DHT22;61444;59.472;18.306;2023-06-14T06:14:00;18.70;87.50
11549;DHT22;61444;59.472;18.306;2023-06-14T06:16:09;18.80;87.00
11549;DHT22;61444;59.472;18.306;2023-06-14T06:18:18;18.90;87.70
11549;DHT22;61444;59.472;18.306;2023-06-14T06:20:26;19.00;86.70
11549;DHT22;61444;59.472;18.306;2023-06-14T06:22:37;19.10;86.10
11549;DHT22;61444;59.472;18.306;2023-06-14T06:24:46;19.20;86.00
11549;DHT22;61444;59.472;18.306;2023-06-14T06:26:56;19.30;86.30
11549;DHT22;61444;59.472;18.306;2023-06-14T06:29:04;19.40;87.40
11549;DHT22;61444;59.472;18.306;2023-06-14T06:31:13;19.40;88.70
11549;DHT22;61444;59.472;18.306;2023-06-14T06:33:22;19.50;90.00
11549;DHT22;61444;59.472;18.306;2023-06-14T06:35:30;19.50;89.40
11549;DHT22;61444;59.472;18.306;2023-06-14T06:37:41;19.50;89.40
11549;DHT22;61444;59.472;18.306;2023-06-14T06:39:50;19.40;89.10
11549;DHT22;61444;59.472;18.306;2023-06-14T06:42:00;19.30;90.80
11549;DHT22;61444;59.472;18.306;2023-06-14T06:44:09;19.20;90.10
11549;DHT22;61444;59.472;18.306;2023-06-14T06:46:18;19.00;90.80
11549;DHT22;61444;59.472;18.306;2023-06-14T06:48:26;19.10;90.90
11549;DHT22;61444;59.472;18.306;2023-06-14T06:50:35;19.20;90.80
11549;DHT22;61444;59.472;18.306;2023-06-14T06:52:44;19.20;91.70
11549;DHT22;61444;59.472;18.306;2023-06-14T06:54:53;19.40;91.70
11549;DHT22;61444;59.472;18.306;2023-06-14T06:57:05;19.40;90.60
11549;DHT22;61444;59.472;18.306;2023-06-14T06:59:19;19.50;90.10
11549;DHT22;61444;59.472;18.306;2023-06-14T07:01:30;19.50;90.70
11549;DHT22;61444;59.472;18.306;2023-06-14T07:03:45;19.60;90.00
11549;DHT22;61444;59.472;18.306;2023-06-14T07:05:59;19.70;90.00
11549;DHT22;61444;59.472;18.306;2023-06-14T07:08:09;19.80;89.90
11549;DHT22;61444;59.472;18.306;2023-06-14T07:10:25;19.90;90.10
11549;DHT22;61444;59.472;18.306;2023-06-14T07:12:36;19.90;87.50
11549;DHT22;61444;59.472;18.306;2023-06-14T07:14:46;20.00;87.10
11549;DHT22;61444;59.472;18.306;2023-06-14T07:16:58;20.20;85.20
11549;DHT22;61444;59.472;18.306;2023-06-14T07:19:11;20.30;84.60
11549;DHT22;61444;59.472;18.306;2023-06-14T07:21:26;20.30;81.30
11549;DHT22;61444;59.472;18.306;2023-06-14T07:23:37;20.40;82.50
11549;DHT22;61444;59.472;18.306;2023-06-14T07:25:52;20.50;81.40
11549;DHT22;61444;59.472;18.306;2023-06-14T07:28:06;20.60;81.10
11549;DHT22;61444;59.472;18.306;2023-06-14T07:30:36;20.70;79.40
11549;DHT22;61444;59.472;18.306;2023-06-14T07:32:52;20.90;78.00
11549;DHT22;61444;59.472;18.306;2023-06-14T07:35:08;21.00;77.30
11549;DHT22;61444;59.472;18.306;2023-06-14T07:37:28;20.90;76.20
11549;DHT22;61444;59.472;18.306;2023-06-14T07:39:43;21.10;78.00
11549;DHT22;61444;59.472;18.306;2023-06-14T07:41:53;21.10;74.00
11549;DHT22;61444;59.472;18.306;2023-06-14T07:44:11;21.20;76.20
11549;DHT22;61444;59.472;18.306;2023-06-14T07:46:21;21.30;74.70
11549;DHT22;61444;59.472;18.306;2023-06-14T07:48:33;21.30;75.90
11549;DHT22;61444;59.472;18.306;2023-06-14T07:50:51;21.30;74.40
11549;DHT22;61444;59.472;18.306;2023-06-14T07:53:08;21.40;72.70
11549;DHT22;61444;59.472;18.306;2023-06-14T07:55:21;21.50;72.20
11549;DHT22;61444;59.472;18.306;2023-06-14T07:57:48;21.60;72.00
11549;DHT22;61444;59.472;18.306;2023-06-14T08:00:02;21.60;72.20
11549;DHT22;61444;59.472;18.306;2023-06-14T08:02:17;21.80;71.00
11549;DHT22;61444;59.472;18.306;2023-06-14T08:04:35;21.90;72.90
11549;DHT22;61444;59.472;18.306;2023-06-14T08:06:50;22.00;74.20
11549;DHT22;61444;59.472;18.306;2023-06-14T08:09:02;22.20;71.80
11549;DHT22;61444;59.472;18.306;2023-06-14T08:11:13;22.20;72.00
11549;DHT22;61444;59.472;18.306;2023-06-14T08:13:26;22.20;72.10
11549;DHT22;61444;59.472;18.306;2023-06-14T08:15:37;22.30;68.40
11549;DHT22;61444;59.472;18.306;2023-06-14T08:17:48;22.40;71.60
11549;DHT22;61444;59.472;18.306;2023-06-14T08:19:57;22.40;69.50
11549;DHT22;61444;59.472;18.306;2023-06-14T08:22:07;22.50;69.80
11549;DHT22;61444;59.472;18.306;2023-06-14T08:24:33;22.70;70.30
11549;DHT22;61444;59.472;18.306;2023-06-14T08:26:45;22.70;68.20
11549;DHT22;61444;59.472;18.306;2023-06-14T08:29:00;22.80;68.50
11549;DHT22;61444;59.472;18.306;2023-06-14T08:31:21;22.90;68.20
11549;DHT22;61444;59.472;18.306;2023-06-14T08:33:33;22.90;66.80
11549;DHT22;61444;59.472;18.306;2023-06-14T08:35:43;23.00;66.50
11549;DHT22;61444;59.472;18.306;2023-06-14T08:37:57;23.10;67.10
11549;DHT22;61444;59.472;18.306;2023-06-14T08:40:22;23.20;67.30
11549;DHT22;61444;59.472;18.306;2023-06-14T08:42:38;23.30;67.80
11549;DHT22;61444;59.472;18.306;2023-06-14T08:44:53;23.30;66.20
11549;DHT22;61444;59.472;18.306;2023-06-14T08:47:07;23.20;65.80
11549;DHT22;61444;59.472;18.306;2023-06-14T08:49:22;23.20;68.10
11549;DHT22;61444;59.472;18.306;2023-06-14T08:51:35;23.30;67.20
11549;DHT22;61444;59.472;18.306;2023-06-14T08:53:52;23.40;66.90
11549;DHT22;61444;59.472;18.306;2023-06-14T08:56:09;23.60;65.60
11549;DHT22;61444;59.472;18.306;2023-06-14T08:58:22;23.80;67.40
11549;DHT22;61444;59.472;18.306;2023-06-14T09:00:35;23.80;67.20
11549;DHT22;61444;59.472;18.306;2023-06-14T09:02:55;24.10;68.10
11549;DHT22;61444;59.472;18.306;2023-06-14T09:05:09;24.20;64.80
11549;DHT22;61444;59.472;18.306;2023-06-14T09:07:22;24.60;66.90
11549;DHT22;61444;59.472;18.306;2023-06-14T09:09:39;24.60;66.00
11549;DHT22;61444;59.472;18.306;2023-06-14T09:12:12;24.90;65.40
11549;DHT22;61444;59.472;18.306;2023-06-14T09:14:23;25.00;65.60
11549;DHT22;61444;59.472;18.306;2023-06-14T09:16:37;25.00;62.30
11549;DHT22;61444;59.472;18.306;2023-06-14T09:18:51;25.10;63.30
11549;DHT22;61444;59.472;18.306;2023-06-14T09:21:03;24.90;61.30
11549;DHT22;61444;59.472;18.306;2023-06-14T09:23:20;24.80;60.10
11549;DHT22;61444;59.472;18.306;2023-06-14T09:25:31;25.00;60.40
11549;DHT22;61444;59.472;18.306;2023-06-14T09:27:47;25.40;60.70
11549;DHT22;61444;59.472;18.306;2023-06-14T09:30:01;25.30;59.10
11549;DHT22;61444;59.472;18.306;2023-06-14T09:32:16;25.30;59.20
11549;DHT22;61444;59.472;18.306;2023-06-14T09:34:30;25.20;58.00
11549;DHT22;61444;59.472;18.306;2023-06-14T09:36:44;25.30;58.30
11549;DHT22;61444;59.472;18.306;2023-06-14T09:38:57;25.40;58.20
11549;DHT22;61444;59.472;18.306;2023-06-14T09:41:09;25.40;58.30
11549;DHT22;61444;59.472;18.306;2023-06-14T09:43:20;25.50;57.80
11549;DHT22;61444;59.472;18.306;2023-06-14T09:45:31;25.20;58.00
11549;DHT22;61444;59.472;18.306;2023-06-14T09:47:41;25.30;58.60
11549;DHT22;61444;59.472;18.306;2023-06-14T09:50:14;25.60;59.20
11549;DHT22;61444;59.472;18.306;2023-06-14T09:52:27;26.00;57.80
11549;DHT22;61444;59.472;18.306;2023-06-14T09:54:41;26.10;57.30
11549;DHT22;61444;59.472;18.306;2023-06-14T09:56:51;26.20;56.80
11549;DHT22;61444;59.472;18.306;2023-06-14T09:59:05;26.20;56.80
11549;DHT22;61444;59.472;18.306;2023-06-14T10:01:18;26.20;57.50
11549;DHT22;61444;59.472;18.306;2023-06-14T10:03:29;26.40;57.30
11549;DHT22;61444;59.472;18.306;2023-06-14T10:06:09;26.50;56.70
11549;DHT22;61444;59.472;18.306;2023-06-14T10:08:27;26.40;57.30
11549;DHT22;61444;59.472;18.306;2023-06-14T10:10:46;26.20;56.60
11549;DHT22;61444;59.472;18.306;2023-06-14T10:13:01;26.30;56.70
11549;DHT22;61444;59.472;18.306;2023-06-14T10:15:17;26.30;56.20
11549;DHT22;61444;59.472;18.306;2023-06-14T10:17:40;25.70;56.20
11549;DHT22;61444;59.472;18.306;2023-06-14T10:20:02;25.60;56.90
11549;DHT22;61444;59.472;18.306;2023-06-14T10:22:25;25.80;56.80
11549;DHT22;61444;59.472;18.306;2023-06-14T10:24:42;25.40;56.00
11549;DHT22;61444;59.472;18.306;2023-06-14T10:26:57;25.60;56.70
11549;DHT22;61444;59.472;18.306;2023-06-14T10:29:08;25.70;56.30
11549;DHT22;61444;59.472;18.306;2023-06-14T10:31:21;25.20;56.10
11549;DHT22;61444;59.472;18.306;2023-06-14T10:33:34;25.80;56.40
11549;DHT22;61444;59.472;18.306;2023-06-14T10:36:08;26.00;55.70
11549;DHT22;61444;59.472;18.306;2023-06-14T10:38:31;25.90;55.70
11549;DHT22;61444;59.472;18.306;2023-06-14T10:40:52;26.00;54.50
11549;DHT22;61444;59.472;18.306;2023-06-14T10:43:21;26.20;55.50
11549;DHT22;61444;59.472;18.306;2023-06-14T10:45:31;26.10;54.80
11549;DHT22;61444;59.472;18.306;2023-06-14T10:47:43;25.70;55.50
11549;DHT22;61444;59.472;18.306;2023-06-14T10:49:57;25.60;54.40
11549;DHT22;61444;59.472;18.306;2023-06-14T10:52:15;25.30;55.50
11549;DHT22;61444;59.472;18.306;2023-06-14T10:54:31;25.70;56.70
11549;DHT22;61444;59.472;18.306;2023-06-14T10:56:49;26.00;55.40
11549;DHT22;61444;59.472;18.306;2023-06-14T10:59:01;26.10;56.20
11549;DHT22;61444;59.472;18.306;2023-06-14T11:01:11;26.00;54.40
11549;DHT22;61444;59.472;18.306;2023-06-14T11:03:36;26.00;55.20
11549;DHT22;61444;59.472;18.306;2023-06-14T11:05:58;25.90;54.80
11549;DHT22;61444;59.472;18.306;2023-06-14T11:10:55;25.60;55.00
11549;DHT22;61444;59.472;18.306;2023-06-14T11:13:09;25.40;55.50
11549;DHT22;61444;59.472;18.306;2023-06-14T11:15:20;25.70;57.20
11549;DHT22;61444;59.472;18.306;2023-06-14T11:18:00;25.80;55.30
11549;DHT22;61444;59.472;18.306;2023-06-14T11:22:55;25.70;54.70
11549;DHT22;61444;59.472;18.306;2023-06-14T11:25:07;25.60;55.70
11549;DHT22;61444;59.472;18.306;2023-06-14T11:27:18;25.80;55.60
11549;DHT22;61444;59.472;18.306;2023-06-14T11:29:29;25.60;54.60
11549;DHT22;61444;59.472;18.306;2023-06-14T11:31:43;25.50;54.90
11549;DHT22;61444;59.472;18.306;2023-06-14T11:33:54;25.50;55.00
11549;DHT22;61444;59.472;18.306;2023-06-14T11:36:06;25.70;55.80
11549;DHT22;61444;59.472;18.306;2023-06-14T11:38:16;25.70;54.70
11549;DHT22;61444;59.472;18.306;2023-06-14T11:40:24;25.50;54.40
11549;DHT22;61444;59.472;18.306;2023-06-14T11:42:34;25.50;53.60
11549;DHT22;61444;59.472;18.306;2023-06-14T11:44:45;25.50;54.00
11549;DHT22;61444;59.472;18.306;2023-06-14T11:46:54;25.40;54.90
11549;DHT22;61444;59.472;18.306;2023-06-14T11:49:04;25.50;54.30
11549;DHT22;61444;59.472;18.306;2023-06-14T11:51:14;25.70;54.30
11549;DHT22;61444;59.472;18.306;2023-06-14T11:53:22;25.60;54.10
11549;DHT22;61444;59.472;18.306;2023-06-14T11:55:30;25.40;53.90
11549;DHT22;61444;59.472;18.306;2023-06-14T11:57:40;25.20;53.80
11549;DHT22;61444;59.472;18.306;2023-06-14T11:59:49;25.20;54.40
11549;DHT22;61444;59.472;18.306;2023-06-14T12:01:58;25.10;54.30
11549;DHT22;61444;59.472;18.306;2023-06-14T12:04:06;25.20;54.00
11549;DHT22;61444;59.472;18.306;2023-06-14T12:06:15;25.20;54.60
11549;DHT22;61444;59.472;18.306;2023-06-14T12:08:32;24.90;54.60
11549;DHT22;61444;59.472;18.306;2023-06-14T12:10:46;24.90;54.10
11549;DHT22;61444;59.472;18.306;2023-06-14T12:12:58;25.20;54.20
11549;DHT22;61444;59.472;18.306;2023-06-14T12:15:08;25.40;54.80
11549;DHT22;61444;59.472;18.306;2023-06-14T12:17:19;25.30;54.10
11549;DHT22;61444;59.472;18.306;2023-06-14T12:19:28;25.20;53.50
11549;DHT22;61444;59.472;18.306;2023-06-14T12:21:37;25.10;54.00
11549;DHT22;61444;59.472;18.306;2023-06-14T12:23:48;25.10;54.20
11549;DHT22;61444;59.472;18.306;2023-06-14T12:25:59;25.20;53.90
11549;DHT22;61444;59.472;18.306;2023-06-14T12:28:09;25.20;54.20
11549;DHT22;61444;59.472;18.306;2023-06-14T12:30:18;25.20;54.90
11549;DHT22;61444;59.472;18.306;2023-06-14T12:32:26;25.50;54.90
11549;DHT22;61444;59.472;18.306;2023-06-14T12:34:35;25.50;54.30
11549;DHT22;61444;59.472;18.306;2023-06-14T12:36:44;25.30;53.30
11549;DHT22;61444;59.472;18.306;2023-06-14T12:38:53;25.20;54.00
11549;DHT22;61444;59.472;18.306;2023-06-14T12:41:01;25.20;54.60
11549;DHT22;61444;59.472;18.306;2023-06-14T12:43:11;25.20;54.60
11549;DHT22;61444;59.472;18.306;2023-06-14T12:45:19;25.10;54.60
11549;DHT22;61444;59.472;18.306;2023-06-14T12:47:28;24.90;54.20
11549;DHT22;61444;59.472;18.306;2023-06-14T12:49:36;24.80;54.40
11549;DHT22;61444;59.472;18.306;2023-06-14T12:51:44;24.90;54.80
11549;DHT22;61444;59.472;18.306;2023-06-14T12:53:53;24.90;54.20
11549;DHT22;61444;59.472;18.306;2023-06-14T12:56:01;25.00;54.70
11549;DHT22;61444;59.472;18.306;2023-06-14T12:58:11;24.90;54.30
11549;DHT22;61444;59.472;18.306;2023-06-14T13:00:21;25.00;54.50
11549;DHT22;61444;59.472;18.306;2023-06-14T13:02:29;25.20;54.30
11549;DHT22;61444;59.472;18.306;2023-06-14T13:04:38;25.20;55.10
11549;DHT22;61444;59.472;18.306;2023-06-14T13:06:46;25.30;54.30
11549;DHT22;61444;59.472;18.306;2023-06-14T13:08:55;25.40;54.50
11549;DHT22;61444;59.472;18.306;2023-06-14T13:11:04;25.30;54.50
11549;DHT22;61444;59.472;18.306;2023-06-14T13:13:14;25.20;53.90
11549;DHT22;61444;59.472;18.306;2023-06-14T13:15:22;25.30;54.30
11549;DHT22;61444;59.472;18.306;2023-06-14T13:17:30;25.30;54.20
11549;DHT22;61444;59.472;18.306;2023-06-14T13:19:40;25.30;54.60
11549;DHT22;61444;59.472;18.306;2023-06-14T13:21:49;25.30;53.60
11549;DHT22;61444;59.472;18.306;2023-06-14T13:23:57;25.10;53.70
11549;DHT22;61444;59.472;18.306;2023-06-14T13:26:05;25.10;54.30
11549;DHT22;61444;59.472;18.306;2023-06-14T13:28:15;25.40;55.40
11549;DHT22;61444;59.472;18.306;2023-06-14T13:30:23;25.10;53.80
11549;DHT22;61444;59.472;18.306;2023-06-14T13:32:32;25.20;53.80
11549;DHT22;61444;59.472;18.306;2023-06-14T13:34:40;25.50;54.00
11549;DHT22;61444;59.472;18.306;2023-06-14T13:36:49;25.50;53.60
11549;DHT22;61444;59.472;18.306;2023-06-14T13:38:57;25.40;52.80
11549;DHT22;61444;59.472;18.306;2023-06-14T13:41:07;25.60;53.30
11549;DHT22;61444;59.472;18.306;2023-06-14T13:43:16;25.80;53.60